Talleys Crossing, North Carolina
Current Conditions -  °F | °C
As of 12:54 AM on Wednesday 28 Jan 2015 (Local Time) from KGSO Reporting Station
Clear Clear  
Wind Chill: 22°   Ceiling: Unl
Heat Index: 28°   Visibility: 10mi
Dew Point: 10°   Wind: 6mph
Humidity: 47%   Direction: 330°NNW
Pressure: 30.01"   Gusts: NA
Location:  36.1188°N, 80.075°W
Report Text: KGSO 280554Z 33005KT 10SM CLR M02/M12 A3001 RMK AO2 SLP166 T10221122 10033 21022 51017
Loading
Personal Weather Stations






























Interactive Weather Map New forecast layout! Learn more

10-Day Weather Forecast

Advertisements
Track Severe Weather on mobile